| time (UTC) | temp C | wind direction | speed KPH | gust KPH | rain 1hr cm | rain 24hr cm | rain mn cm | humidity % | barometer mb |
| 20260507120620 | 9 | 35 | 4.8 | 16.1 | 0.00 | 0.25 | 0.00 | 91 | 1008.8 |
| 20260507115121 | 10 | 40 | 4.8 | 17.7 | 0.00 | 0.25 | 0.00 | 91 | 1009.1 |
| 20260507113620 | 10 | 36 | 3.2 | 14.5 | 0.00 | 0.25 | 0.00 | 91 | 1008.5 |
| 20260507112121 | 10 | 31 | 6.4 | 25.7 | 0.00 | 0.25 | 0.00 | 91 | 1008.3 |
| 20260507110620 | 10 | 36 | 6.4 | 22.5 | 0.00 | 0.25 | 0.00 | 92 | 1008.6 |
| 20260507105120 | 10 | 37 | 4.8 | 17.7 | 0.00 | 0.25 | 0.00 | 92 | 1008.4 |
| 20260507103622 | 10 | 38 | 4.8 | 19.3 | 0.00 | 0.25 | 0.00 | 92 | 1008.1 |
| 20260507102121 | 10 | 36 | 6.4 | 14.5 | 0.00 | 0.25 | 0.00 | 92 | 1008.2 |
| 20260507100621 | 11 | 34 | 6.4 | 20.9 | 0.00 | 0.25 | 0.00 | 92 | 1007.4 |
| 20260507095120 | 11 | 34 | 6.4 | 14.5 | 0.00 | 0.25 | 0.00 | 92 | 1007.7 |
| 20260507093621 | 12 | 36 | 4.8 | 17.7 | 0.00 | 0.25 | 0.00 | 93 | 1007.3 |
| 20260507092120 | 12 | 41 | 6.4 | 16.1 | 0.00 | 0.25 | 0.00 | 93 | 1007.6 |
| 20260507090620 | 12 | 40 | 8.0 | 16.1 | 0.00 | 0.25 | 0.00 | 93 | 1008.2 |
| 20260507085121 | 13 | 40 | 4.8 | 19.3 | 0.00 | 0.25 | 0.00 | 93 | 1008.0 |
| 20260507083621 | 13 | 37 | 1.6 | 4.8 | 0.00 | 0.23 | 0.00 | 93 | 1006.9 |
| 20260507082120 | 13 | 34 | 3.2 | 9.7 | 0.00 | 0.23 | 0.00 | 93 | 1006.6 |
| 20260507080622 | 13 | 35 | 1.6 | 6.4 | 0.00 | 0.23 | 0.00 | 93 | 1006.6 |
| 20260507075122 | 13 | 34 | 1.6 | 9.7 | 0.00 | 0.23 | 0.23 | 93 | 1006.9 |
| 20260507073620 | 13 | 34 | 4.8 | 14.5 | 0.00 | 0.23 | 0.23 | 93 | 1007.1 |
| 20260507072121 | 13 | 36 | 1.6 | 9.7 | 0.00 | 0.23 | 0.23 | 93 | 1007.1 |
| 20260507070621 | 13 | 37 | 3.2 | 11.3 | 0.00 | 0.23 | 0.23 | 93 | 1007.0 |
| 20260507065121 | 13 | 37 | 3.2 | 14.5 | 0.00 | 0.23 | 0.23 | 93 | 1007.0 |
| 20260507063620 | 13 | 38 | 4.8 | 14.5 | 0.00 | 0.23 | 0.23 | 93 | 1007.5 |
| 20260507062121 | 13 | 38 | 6.4 | 16.1 | 0.00 | 0.23 | 0.23 | 93 | 1007.3 |
| 20260507060621 | 13 | 40 | 6.4 | 19.3 | 0.00 | 0.23 | 0.23 | 93 | 1007.4 |
| 20260507055120 | 13 | 218 | 8.0 | 20.9 | 0.00 | 0.23 | 0.23 | 93 | 1007.4 |
| 20260507053621 | 13 | 231 | 8.0 | 22.5 | 0.00 | 0.23 | 0.23 | 93 | 1007.7 |
| 20260507052122 | 13 | 43 | 9.7 | 20.9 | 0.00 | 0.23 | 0.23 | 93 | 1008.1 |
| 20260507050621 | 13 | 42 | 11.3 | 24.1 | 0.00 | 0.23 | 0.23 | 93 | 1007.9 |
| 20260507045120 | 13 | 35 | 8.0 | 22.5 | 0.00 | 0.23 | 0.23 | 93 | 1007.9 |
| 20260507043622 | 13 | 35 | 8.0 | 17.7 | 0.00 | 0.23 | 0.23 | 92 | 1008.0 |
| 20260507042121 | 13 | 243 | 8.0 | 20.9 | 0.00 | 0.23 | 0.23 | 92 | 1008.3 |
| 20260507040622 | 14 | 238 | 11.3 | 24.1 | 0.00 | 0.23 | 0.23 | 92 | 1008.4 |
| 20260507035120 | 14 | 231 | 12.9 | 27.4 | 0.00 | 0.23 | 0.23 | 92 | 1008.5 |
| 20260507033621 | 14 | 225 | 11.3 | 27.4 | 0.00 | 0.23 | 0.23 | 92 | 1008.3 |
| 20260507032122 | 14 | 213 | 11.3 | 25.7 | 0.00 | 0.23 | 0.23 | 92 | 1007.8 |
| 20260507030621 | 14 | 218 | 12.9 | 29.0 | 0.00 | 0.23 | 0.23 | 92 | 1007.9 |
| 20260507025121 | 14 | 225 | 12.9 | 33.8 | 0.00 | 0.23 | 0.23 | 92 | 1008.4 |
| 20260507023621 | 14 | 223 | 12.9 | 25.7 | 0.00 | 0.23 | 0.23 | 92 | 1008.6 |
| 20260507022121 | 14 | 221 | 12.9 | 29.0 | 0.00 | 0.23 | 0.23 | 92 | 1008.9 |
| 20260507020622 | 14 | 226 | 14.5 | 33.8 | 0.00 | 0.23 | 0.23 | 92 | 1009.1 |
| 20260507015122 | 14 | 219 | 12.9 | 32.2 | 0.05 | 0.23 | 0.23 | 93 | 1009.4 |
| 20260507013621 | 14 | 219 | 12.9 | 29.0 | 0.05 | 0.20 | 0.20 | 92 | 1009.5 |
| 20260507012122 | 14 | 213 | 14.5 | 35.4 | 0.05 | 0.20 | 0.20 | 92 | 1009.5 |
| 20260507010620 | 14 | 211 | 17.7 | 35.4 | 0.08 | 0.20 | 0.20 | 92 | 1009.4 |
| 20260507005121 | 14 | 212 | 14.5 | 30.6 | 0.05 | 0.15 | 0.15 | 92 | 1009.5 |
| 20260507003621 | 14 | 209 | 16.1 | 43.5 | 0.05 | 0.15 | 0.15 | 92 | 1009.4 |
| 20260507002122 | 14 | 209 | 14.5 | 33.8 | 0.10 | 0.13 | 0.13 | 92 | 1009.4 |
| 20260507000621 | 14 | 208 | 14.5 | 35.4 | 0.13 | 0.13 | 0.13 | 91 | 1009.6 |
| 20260506235121 | 14 | 262 | 16.1 | 33.8 | 0.10 | 0.10 | 0.10 | 91 | 1009.7 |
| 20260506233621 | 15 | 212 | 14.5 | 33.8 | 0.08 | 0.08 | 0.08 | 90 | 1009.8 |
| 20260506232122 | 15 | 212 | 16.1 | 32.2 | 0.00 | 0.00 | 0.00 | 89 | 1010.1 |
| 20260506230621 | 16 | 215 | 16.1 | 43.5 | 0.00 | 0.00 | 0.00 | 85 | 1010.1 |
| 20260506225121 | 16 | 214 | 17.7 | 38.6 | 0.00 | 0.00 | 0.00 | 83 | 1010.2 |
| 20260506223622 | 16 | 207 | 17.7 | 40.2 | 0.00 | 0.00 | 0.00 | 82 | 1010.3 |
| 20260506222121 | 16 | 212 | 14.5 | 33.8 | 0.00 | 0.00 | 0.00 | 82 | 1010.1 |
| 20260506220621 | 16 | 210 | 14.5 | 37.0 | 0.00 | 0.00 | 0.00 | 81 | 1010.2 |
| 20260506215122 | 16 | 210 | 16.1 | 35.4 | 0.00 | 0.00 | 0.00 | 81 | 1010.5 |
| 20260506213621 | 16 | 208 | 16.1 | 38.6 | 0.00 | 0.00 | 0.00 | 80 | 1010.6 |
| 20260506212121 | 16 | 209 | 14.5 | 45.1 | 0.00 | 0.00 | 0.00 | 80 | 1010.6 |
| 20260506210621 | 17 | 208 | 16.1 | 37.0 | 0.00 | 0.00 | 0.00 | 80 | 1010.6 |
| 20260506205123 | 16 | 211 | 17.7 | 38.6 | 0.00 | 0.00 | 0.00 | 79 | 1010.7 |
| 20260506203622 | 17 | 211 | 16.1 | 40.2 | 0.00 | 0.00 | 0.00 | 79 | 1011.1 |
| 20260506202121 | 17 | 214 | 12.9 | 29.0 | 0.00 | 0.00 | 0.00 | 79 | 1011.2 |
| 20260506200622 | 17 | 218 | 12.9 | 27.4 | 0.00 | 0.00 | 0.00 | 79 | 1011.4 |
| 20260506195121 | 17 | 216 | 14.5 | 33.8 | 0.00 | 0.00 | 0.00 | 79 | 1011.4 |
| 20260506193623 | 17 | 214 | 14.5 | 33.8 | 0.00 | 0.00 | 0.00 | 79 | 1011.4 |
| 20260506192123 | 17 | 213 | 14.5 | 29.0 | 0.00 | 0.00 | 0.00 | 79 | 1011.6 |
| 20260506190622 | 17 | 218 | 16.1 | 35.4 | 0.00 | 0.00 | 0.00 | 78 | 1011.9 |
| 20260506185121 | 17 | 218 | 19.3 | 45.1 | 0.00 | 0.00 | 0.00 | 77 | 1012.2 |
| 20260506183622 | 17 | 216 | 17.7 | 40.2 | 0.00 | 0.00 | 0.00 | 76 | 1012.2 |
| 20260506182122 | 18 | 221 | 19.3 | 45.1 | 0.00 | 0.00 | 0.00 | 74 | 1012.6 |
| 20260506180622 | 18 | 222 | 16.1 | 40.2 | 0.00 | 0.00 | 0.00 | 75 | 1012.7 |
| 20260506175121 | 18 | 219 | 16.1 | 35.4 | 0.00 | 0.00 | 0.00 | 76 | 1012.7 |
| 20260506173621 | 17 | 219 | 19.3 | 48.3 | 0.00 | 0.00 | 0.00 | 77 | 1012.7 |
| 20260506172122 | 17 | 211 | 17.7 | 41.8 | 0.00 | 0.00 | 0.00 | 77 | 1013.0 |
| 20260506170623 | 18 | 217 | 17.7 | 38.6 | 0.00 | 0.00 | 0.00 | 76 | 1013.3 |
| 20260506165122 | 18 | 218 | 17.7 | 46.7 | 0.00 | 0.00 | 0.00 | 75 | 1013.5 |
| 20260506163623 | 18 | 214 | 17.7 | 43.5 | 0.00 | 0.00 | 0.00 | 73 | 1013.5 |
| 20260506162122 | 18 | 210 | 22.5 | 46.7 | 0.00 | 0.00 | 0.00 | 75 | 1013.7 |
| 20260506160622 | 18 | 215 | 20.9 | 51.5 | 0.00 | 0.00 | 0.00 | 74 | 1013.7 |
| 20260506155121 | 18 | 219 | 20.9 | 45.1 | 0.00 | 0.00 | 0.00 | 75 | 1014.0 |
| 20260506153622 | 17 | 219 | 19.3 | 53.1 | 0.00 | 0.00 | 0.00 | 77 | 1014.3 |
| 20260506152123 | 18 | 220 | 17.7 | 45.1 | 0.00 | 0.00 | 0.00 | 76 | 1014.1 |
| 20260506150623 | 18 | 214 | 19.3 | 43.5 | 0.00 | 0.00 | 0.00 | 75 | 1013.9 |
| 20260506145121 | 18 | 216 | 20.9 | 43.5 | 0.00 | 0.00 | 0.00 | 74 | 1013.8 |
| 20260506143622 | 18 | 215 | 17.7 | 51.5 | 0.00 | 0.00 | 0.00 | 75 | 1013.9 |
| 20260506142122 | 18 | 216 | 22.5 | 45.1 | 0.00 | 0.00 | 0.00 | 76 | 1014.4 |
| 20260506140622 | 18 | 221 | 19.3 | 46.7 | 0.00 | 0.00 | 0.00 | 76 | 1014.4 |
| 20260506135123 | 17 | 214 | 16.1 | 40.2 | 0.00 | 0.00 | 0.00 | 77 | 1014.1 |
| 20260506133622 | 17 | 218 | 17.7 | 46.7 | 0.00 | 0.00 | 0.00 | 77 | 1014.1 |
| 20260506132123 | 17 | 217 | 17.7 | 40.2 | 0.00 | 0.00 | 0.00 | 78 | 1014.0 |
| 20260506130622 | 17 | 216 | 16.1 | 38.6 | 0.00 | 0.00 | 0.00 | 79 | 1014.2 |
| 20260506125122 | 16 | 218 | 19.3 | 38.6 | 0.00 | 0.00 | 0.00 | 81 | 1014.2 |
| 20260506123623 | 16 | 216 | 17.7 | 38.6 | 0.00 | 0.00 | 0.00 | 81 | 1014.3 |
| 20260506122122 | 16 | 217 | 17.7 | 41.8 | 0.00 | 0.00 | 0.00 | 83 | 1014.4 |